createdAt,value
2023-05-20T00:01:30.169Z,14.08
2023-05-20T00:04:37.741Z,14.02
2023-05-20T00:07:43.921Z,13.93
2023-05-20T00:10:51.239Z,13.92
2023-05-20T00:13:57.261Z,13.94
2023-05-20T00:17:06.195Z,13.82
2023-05-20T00:20:13.019Z,13.84
2023-05-20T00:23:19.745Z,13.77
2023-05-20T00:26:29.341Z,13.65
2023-05-20T00:29:43.001Z,13.66
2023-05-20T00:32:50.038Z,13.75
2023-05-20T00:35:57.566Z,13.69
2023-05-20T00:39:03.176Z,13.73
2023-05-20T00:42:13.719Z,13.71
2023-05-20T00:45:19.899Z,13.72
2023-05-20T00:48:27.619Z,13.73
2023-05-20T00:51:38.962Z,13.72
2023-05-20T00:54:50.131Z,13.76
2023-05-20T00:57:57.300Z,13.68
2023-05-20T01:01:04.902Z,13.65
2023-05-20T01:04:12.568Z,13.61
2023-05-20T01:07:21.402Z,13.66
2023-05-20T01:10:31.383Z,13.63
2023-05-20T01:13:54.603Z,13.77
2023-05-20T01:17:03.561Z,13.80
2023-05-20T01:20:13.819Z,13.84
2023-05-20T01:23:19.846Z,13.90
2023-05-20T01:26:29.994Z,13.84
2023-05-20T01:29:42.085Z,13.81
2023-05-20T01:32:59.355Z,13.74
2023-05-20T01:36:06.772Z,13.67
2023-05-20T01:39:13.908Z,13.70
2023-05-20T01:42:23.016Z,13.63
2023-05-20T01:45:30.791Z,13.56
2023-05-20T01:48:41.968Z,13.52
2023-05-20T01:51:49.957Z,13.46
2023-05-20T01:54:55.629Z,13.39
2023-05-20T01:58:04.159Z,13.35
2023-05-20T02:01:10.134Z,13.35
2023-05-20T02:04:19.759Z,13.49
2023-05-20T02:07:24.258Z,13.80
2023-05-20T02:10:32.383Z,13.91
2023-05-20T02:13:41.542Z,13.97
2023-05-20T02:16:50.254Z,13.92
2023-05-20T02:19:59.006Z,13.85
2023-05-20T02:23:09.064Z,13.77
2023-05-20T02:26:15.160Z,13.72
2023-05-20T02:29:23.575Z,13.72
2023-05-20T02:32:31.127Z,13.68
2023-05-20T02:35:38.947Z,13.65
2023-05-20T02:38:45.569Z,13.55
2023-05-20T02:41:53.150Z,13.50
2023-05-20T02:45:00.519Z,13.40
2023-05-20T02:48:09.092Z,13.30
2023-05-20T02:51:16.719Z,13.26
2023-05-20T02:54:25.685Z,13.40
2023-05-20T02:57:33.069Z,13.38
2023-05-20T03:00:44.227Z,13.29
2023-05-20T03:03:50.851Z,13.19
2023-05-20T03:07:00.535Z,13.10
2023-05-20T03:10:08.799Z,13.10
2023-05-20T03:13:16.038Z,13.24
2023-05-20T03:16:21.718Z,13.33
2023-05-20T03:19:31.730Z,13.23
2023-05-20T03:22:39.328Z,13.21
2023-05-20T03:25:47.143Z,13.16
2023-05-20T03:28:52.815Z,13.19
2023-05-20T03:32:04.497Z,13.21
2023-05-20T03:35:12.576Z,13.18
2023-05-20T03:38:20.035Z,13.23
2023-05-20T03:41:27.018Z,13.27
2023-05-20T03:44:35.184Z,13.29
2023-05-20T03:47:41.231Z,13.31
2023-05-20T03:50:48.827Z,13.34
2023-05-20T03:53:56.977Z,13.37
2023-05-20T03:57:05.290Z,13.41
2023-05-20T04:00:16.402Z,13.44
2023-05-20T04:03:21.684Z,13.44
2023-05-20T04:06:28.466Z,13.51
2023-05-20T04:09:35.321Z,13.58
2023-05-20T04:12:46.247Z,13.61
2023-05-20T04:15:53.247Z,13.67
2023-05-20T04:19:01.881Z,13.71
2023-05-20T04:22:12.376Z,13.72
2023-05-20T04:25:22.188Z,13.83
2023-05-20T04:28:32.614Z,13.90
2023-05-20T04:31:40.460Z,13.84
2023-05-20T04:34:51.882Z,13.92
2023-05-20T04:37:59.266Z,13.85
2023-05-20T04:41:07.403Z,13.98
2023-05-20T04:44:16.875Z,14.09
2023-05-20T04:47:21.906Z,14.22
2023-05-20T04:50:29.882Z,14.12
2023-05-20T04:53:38.028Z,14.07
2023-05-20T04:56:47.244Z,14.17
2023-05-20T04:59:53.716Z,14.25
2023-05-20T05:03:00.809Z,14.50
2023-05-20T05:06:06.956Z,14.59
2023-05-20T05:09:14.402Z,14.71
2023-05-20T05:12:21.029Z,14.59
2023-05-20T05:15:26.818Z,14.72
2023-05-20T05:18:33.086Z,14.84
2023-05-20T05:21:38.196Z,14.91
2023-05-20T05:24:44.384Z,14.95
2023-05-20T05:27:52.542Z,15.07
2023-05-20T05:30:59.456Z,15.22
2023-05-20T05:34:07.556Z,15.55
2023-05-20T05:37:12.907Z,15.69
2023-05-20T05:40:19.875Z,15.84
2023-05-20T05:43:25.543Z,15.94
2023-05-20T05:46:32.234Z,16.15
2023-05-20T05:49:38.452Z,16.21
2023-05-20T05:52:46.097Z,16.44
2023-05-20T05:55:51.815Z,16.65
2023-05-20T05:58:56.243Z,16.90
2023-05-20T06:02:00.546Z,16.92
2023-05-20T06:05:05.321Z,17.03
2023-05-20T06:08:09.638Z,17.16
2023-05-20T06:11:13.686Z,17.29
2023-05-20T06:14:18.890Z,17.24
2023-05-20T06:17:23.416Z,17.17
2023-05-20T06:20:27.570Z,17.21
2023-05-20T06:23:33.739Z,17.18
2023-05-20T06:26:37.551Z,17.26
2023-05-20T06:29:43.079Z,17.28
2023-05-20T06:32:47.397Z,17.53
2023-05-20T06:35:51.916Z,17.79
2023-05-20T06:38:55.908Z,17.94
2023-05-20T06:42:01.189Z,18.25
2023-05-20T06:45:06.852Z,18.39
2023-05-20T06:48:12.442Z,18.50
2023-05-20T06:51:16.816Z,18.73
2023-05-20T06:54:22.592Z,18.84
2023-05-20T06:57:26.941Z,19.12
2023-05-20T07:00:33.192Z,19.48
2023-05-20T07:03:38.067Z,19.92
2023-05-20T07:06:42.775Z,20.11
2023-05-20T07:09:47.429Z,20.52
2023-05-20T07:12:52.166Z,20.60
2023-05-20T07:15:57.267Z,20.63
2023-05-20T07:19:02.139Z,20.76
2023-05-20T07:22:05.740Z,21.12
2023-05-20T07:25:11.452Z,21.62
2023-05-20T07:28:17.832Z,21.90
2023-05-20T07:31:22.681Z,22.95
2023-05-20T07:34:27.340Z,24.01
2023-05-20T07:37:32.311Z,24.49
2023-05-20T07:40:37.259Z,24.75
2023-05-20T07:43:41.836Z,25.13
2023-05-20T07:46:46.860Z,25.12
2023-05-20T07:49:51.992Z,25.76
2023-05-20T07:52:57.013Z,25.46
2023-05-20T07:56:02.003Z,24.14
2023-05-20T07:59:05.621Z,25.17
2023-05-20T08:02:11.928Z,24.98
2023-05-20T08:05:17.675Z,25.77
2023-05-20T08:08:22.076Z,26.79
2023-05-20T08:11:27.259Z,25.72
2023-05-20T08:14:32.514Z,26.72
2023-05-20T08:17:37.492Z,27.63
2023-05-20T08:20:45.564Z,25.48
2023-05-20T08:23:50.464Z,24.99
2023-05-20T08:26:54.416Z,25.26
2023-05-20T08:30:00.950Z,24.72
2023-05-20T08:33:05.237Z,24.24
2023-05-20T08:36:09.526Z,25.12
2023-05-20T08:39:13.733Z,24.54
2023-05-20T08:42:22.005Z,24.68
2023-05-20T08:45:29.380Z,25.15
2023-05-20T08:48:37.062Z,27.03
2023-05-20T08:51:43.173Z,26.29
2023-05-20T08:54:49.615Z,27.02
2023-05-20T08:57:54.754Z,26.08
2023-05-20T09:00:59.042Z,26.44
2023-05-20T09:04:03.128Z,26.21
2023-05-20T09:07:07.812Z,26.28
2023-05-20T09:10:11.638Z,26.21
2023-05-20T09:13:16.161Z,26.00
2023-05-20T09:16:20.440Z,28.34
2023-05-20T09:19:25.992Z,29.28
2023-05-20T09:22:30.338Z,28.81
2023-05-20T09:25:35.286Z,27.62
2023-05-20T09:28:41.642Z,29.05
2023-05-20T09:31:46.471Z,30.11
2023-05-20T09:34:51.837Z,28.95
2023-05-20T09:37:57.438Z,27.58
2023-05-20T09:41:03.154Z,30.39
2023-05-20T09:44:08.489Z,31.35
2023-05-20T09:47:13.583Z,32.54
2023-05-20T09:50:21.130Z,32.54
2023-05-20T09:53:28.950Z,34.09
2023-05-20T09:56:35.749Z,33.61
2023-05-20T09:59:40.444Z,33.52
2023-05-20T10:02:46.123Z,30.06
2023-05-20T10:06:23.851Z,29.14
2023-05-20T10:10:00.601Z,30.60
2023-05-20T10:13:35.882Z,30.63
2023-05-20T10:16:51.658Z,31.19
2023-05-20T10:19:59.886Z,33.62
2023-05-20T10:23:03.415Z,33.26
2023-05-20T10:26:07.798Z,33.50
2023-05-20T10:29:19.089Z,32.78
2023-05-20T10:32:34.653Z,34.52
2023-05-20T10:35:49.257Z,34.98
2023-05-20T10:38:58.461Z,34.69
2023-05-20T10:42:10.045Z,34.76
2023-05-20T10:45:33.014Z,35.95
2023-05-20T10:48:42.294Z,36.03
2023-05-20T10:51:48.327Z,33.23
2023-05-20T10:55:00.361Z,34.35
2023-05-20T10:58:06.854Z,34.81
2023-05-20T11:01:11.632Z,36.54
2023-05-20T11:04:17.527Z,35.06
2023-05-20T11:07:29.415Z,35.33
2023-05-20T11:10:34.728Z,35.72
2023-05-20T11:13:39.244Z,35.33
2023-05-20T11:16:47.354Z,33.88
2023-05-20T11:19:53.323Z,33.72
2023-05-20T11:22:57.291Z,35.44
2023-05-20T11:26:00.908Z,36.55
2023-05-20T11:29:09.357Z,36.47
2023-05-20T11:32:15.314Z,37.05
2023-05-20T11:35:26.563Z,37.93
2023-05-20T11:38:31.378Z,37.16
2023-05-20T11:41:38.000Z,38.39
2023-05-20T11:44:45.664Z,39.10
2023-05-20T11:48:06.756Z,36.85
2023-05-20T11:51:16.445Z,39.99
2023-05-20T11:54:25.281Z,39.54
2023-05-20T11:57:31.315Z,39.40
2023-05-20T12:00:49.823Z,36.55
2023-05-20T12:03:58.233Z,37.60
2023-05-20T12:07:04.915Z,36.66
2023-05-20T12:10:12.002Z,37.72
2023-05-20T12:13:16.389Z,38.48
2023-05-20T12:16:19.955Z,39.45
2023-05-20T12:19:25.425Z,41.35
2023-05-20T12:22:31.476Z,42.13
2023-05-20T12:25:37.855Z,41.27
2023-05-20T12:28:44.956Z,39.09
2023-05-20T12:31:51.860Z,38.49
2023-05-20T12:35:00.065Z,39.82
2023-05-20T12:38:05.818Z,39.35
2023-05-20T12:41:12.947Z,37.70
2023-05-20T12:44:17.408Z,38.06
2023-05-20T12:47:23.610Z,38.54
2023-05-20T12:50:29.963Z,40.72
2023-05-20T12:53:38.020Z,41.05
2023-05-20T12:56:48.198Z,39.36
2023-05-20T12:59:54.278Z,40.92
2023-05-20T13:03:01.417Z,40.00
2023-05-20T13:06:07.572Z,39.92
2023-05-20T13:09:15.489Z,39.63
2023-05-20T13:12:20.015Z,41.49
2023-05-20T13:15:25.898Z,41.15
2023-05-20T13:18:35.397Z,39.59
2023-05-20T13:21:45.422Z,38.06
2023-05-20T13:24:53.184Z,38.01
2023-05-20T13:27:59.342Z,39.25
2023-05-20T13:31:07.517Z,40.76
2023-05-20T13:34:13.827Z,39.87
2023-05-20T13:37:20.182Z,39.28
2023-05-20T13:40:25.976Z,39.82
2023-05-20T13:43:33.739Z,40.67
2023-05-20T13:46:39.488Z,41.00
2023-05-20T13:49:44.665Z,40.22
2023-05-20T13:52:51.314Z,40.38
2023-05-20T13:55:59.354Z,41.00
2023-05-20T13:59:06.095Z,40.13
2023-05-20T14:02:12.353Z,39.14
2023-05-20T14:05:21.935Z,40.58
2023-05-20T14:08:28.190Z,38.95
2023-05-20T14:11:36.733Z,38.29
2023-05-20T14:14:43.293Z,37.38
2023-05-20T14:17:48.526Z,35.64
2023-05-20T14:20:53.308Z,33.05
2023-05-20T14:23:59.943Z,31.89
2023-05-20T14:27:04.976Z,31.78
2023-05-20T14:30:13.743Z,32.38
2023-05-20T14:33:18.523Z,33.00
2023-05-20T14:36:24.227Z,32.06
2023-05-20T14:39:30.386Z,30.43
2023-05-20T14:42:39.807Z,30.39
2023-05-20T14:45:49.582Z,31.01
2023-05-20T14:48:55.334Z,32.46
2023-05-20T14:52:01.827Z,32.26
2023-05-20T14:55:09.220Z,30.76
2023-05-20T14:58:15.208Z,31.58
2023-05-20T15:01:21.866Z,31.35
2023-05-20T15:04:28.882Z,31.00
2023-05-20T15:07:36.265Z,31.32
2023-05-20T15:10:43.438Z,31.52
2023-05-20T15:13:51.981Z,31.34
2023-05-20T15:16:57.662Z,29.62
2023-05-20T15:20:06.955Z,29.66
2023-05-20T15:23:12.972Z,28.68
2023-05-20T15:26:19.916Z,29.12
2023-05-20T15:29:25.077Z,29.73
2023-05-20T15:32:31.702Z,28.86
2023-05-20T15:35:39.001Z,28.38
2023-05-20T15:38:45.703Z,27.34
2023-05-20T15:41:51.297Z,27.08
2023-05-20T15:45:00.264Z,27.79
2023-05-20T15:48:08.533Z,29.96
2023-05-20T15:51:15.338Z,29.03
2023-05-20T15:54:20.920Z,28.66
2023-05-20T15:57:26.703Z,27.72
2023-05-20T16:00:32.664Z,27.53
2023-05-20T16:03:39.700Z,27.12
2023-05-20T16:06:43.445Z,27.49
2023-05-20T16:09:48.641Z,27.36
2023-05-20T16:12:54.965Z,27.24
2023-05-20T16:16:00.685Z,26.77
2023-05-20T16:19:06.031Z,25.58
2023-05-20T16:22:11.770Z,26.13
2023-05-20T16:25:16.316Z,25.85
2023-05-20T16:28:19.751Z,26.10
2023-05-20T16:31:24.713Z,27.39
2023-05-20T16:34:31.149Z,28.02
2023-05-20T16:37:35.698Z,26.79
2023-05-20T16:40:43.149Z,25.82
2023-05-20T16:43:49.013Z,25.23
2023-05-20T16:46:55.949Z,25.09
2023-05-20T16:50:03.853Z,25.03
2023-05-20T16:53:14.058Z,24.78
2023-05-20T16:56:23.660Z,24.80
2023-05-20T16:59:32.128Z,24.69
2023-05-20T17:02:41.625Z,24.59
2023-05-20T17:05:49.168Z,24.41
2023-05-20T17:08:54.156Z,24.33
2023-05-20T17:12:00.549Z,24.34
2023-05-20T17:15:07.435Z,24.32
2023-05-20T17:18:15.660Z,24.17
2023-05-20T17:21:23.795Z,24.06
2023-05-20T17:24:31.160Z,23.95
2023-05-20T17:27:40.529Z,23.87
2023-05-20T17:30:48.284Z,23.78
2023-05-20T17:33:53.446Z,23.67
2023-05-20T17:37:00.540Z,23.56
2023-05-20T17:40:07.769Z,23.50
2023-05-20T17:43:15.532Z,23.35
2023-05-20T17:46:20.012Z,23.33
2023-05-20T17:49:25.959Z,23.09
2023-05-20T17:52:33.681Z,22.92
2023-05-20T17:55:40.924Z,22.83
2023-05-20T17:58:45.608Z,22.74
2023-05-20T18:01:51.205Z,22.64
2023-05-20T18:04:58.290Z,22.39
2023-05-20T18:08:04.353Z,22.21
2023-05-20T18:11:17.396Z,22.04
2023-05-20T18:14:23.920Z,22.02
2023-05-20T18:17:30.129Z,21.90
2023-05-20T18:20:36.005Z,21.87
2023-05-20T18:23:44.799Z,21.87
2023-05-20T18:26:50.324Z,21.82
2023-05-20T18:29:59.086Z,21.78
2023-05-20T18:33:06.654Z,21.67
2023-05-20T18:36:14.433Z,21.66
2023-05-20T18:39:21.571Z,21.45
2023-05-20T18:42:27.700Z,21.41
2023-05-20T18:45:33.069Z,21.18
2023-05-20T18:48:40.024Z,20.94
2023-05-20T18:51:49.753Z,20.78
2023-05-20T18:54:59.153Z,20.66
2023-05-20T18:58:06.904Z,20.56
2023-05-20T19:01:15.736Z,20.46
2023-05-20T19:04:22.786Z,20.28
2023-05-20T19:07:29.384Z,20.16
2023-05-20T19:10:35.791Z,20.12
2023-05-20T19:13:46.161Z,20.12
2023-05-20T19:16:50.916Z,20.03
2023-05-20T19:19:58.044Z,19.87
2023-05-20T19:23:06.181Z,19.73
2023-05-20T19:26:13.195Z,19.62
2023-05-20T19:29:19.237Z,19.62
2023-05-20T19:32:27.603Z,19.64
2023-05-20T19:35:34.771Z,19.52
2023-05-20T19:38:43.571Z,19.54
2023-05-20T19:41:52.961Z,19.48
2023-05-20T19:45:00.519Z,19.49
2023-05-20T19:48:09.421Z,19.55
2023-05-20T19:51:15.876Z,19.38
2023-05-20T19:54:21.378Z,19.26
2023-05-20T19:57:27.648Z,19.15
2023-05-20T20:00:33.848Z,19.00
2023-05-20T20:03:42.540Z,18.89
2023-05-20T20:06:48.965Z,18.84
2023-05-20T20:09:56.469Z,18.79
2023-05-20T20:13:02.564Z,18.73
2023-05-20T20:16:10.077Z,18.67
2023-05-20T20:19:19.522Z,18.62
2023-05-20T20:22:26.841Z,18.57
2023-05-20T20:25:37.834Z,18.53
2023-05-20T20:28:46.233Z,18.50
2023-05-20T20:31:52.666Z,18.48
2023-05-20T20:34:59.620Z,18.52
2023-05-20T20:38:11.715Z,18.59
2023-05-20T20:41:19.939Z,18.45
2023-05-20T20:44:30.916Z,18.49
2023-05-20T20:47:39.140Z,18.38
2023-05-20T20:50:46.644Z,18.41
2023-05-20T20:53:54.320Z,18.29
2023-05-20T20:57:03.764Z,18.30
2023-05-20T21:00:17.012Z,18.21
2023-05-20T21:03:24.642Z,18.18
2023-05-20T21:06:30.966Z,18.20
2023-05-20T21:09:39.303Z,18.24
2023-05-20T21:12:46.193Z,18.45
2023-05-20T21:15:53.397Z,18.67
2023-05-20T21:19:01.566Z,18.66
2023-05-20T21:22:07.847Z,18.59
2023-05-20T21:25:15.167Z,18.52
2023-05-20T21:28:22.724Z,18.47
2023-05-20T21:31:30.349Z,18.50
2023-05-20T21:34:38.356Z,18.38
2023-05-20T21:37:47.886Z,18.22
2023-05-20T21:40:59.595Z,18.15
2023-05-20T21:44:06.309Z,18.18
2023-05-20T21:47:13.672Z,18.15
2023-05-20T21:50:19.648Z,18.21
2023-05-20T21:53:24.638Z,18.11
2023-05-20T21:56:30.653Z,17.97
2023-05-20T21:59:37.104Z,17.98
2023-05-20T22:02:43.732Z,17.76
2023-05-20T22:05:50.293Z,17.71
2023-05-20T22:08:55.623Z,17.71
2023-05-20T22:12:02.575Z,17.54
2023-05-20T22:15:11.013Z,17.51
2023-05-20T22:18:17.528Z,17.35
2023-05-20T22:21:21.830Z,17.32
2023-05-20T22:24:27.887Z,17.27
2023-05-20T22:27:34.110Z,17.17
2023-05-20T22:30:40.931Z,17.17
2023-05-20T22:33:46.157Z,17.15
2023-05-20T22:36:54.572Z,17.08
2023-05-20T22:40:00.683Z,17.03
2023-05-20T22:43:06.473Z,17.00
2023-05-20T22:46:11.425Z,16.89
2023-05-20T22:49:17.345Z,16.92
2023-05-20T22:52:26.058Z,16.76
2023-05-20T22:55:34.218Z,16.59
2023-05-20T22:58:44.053Z,16.51
2023-05-20T23:01:54.626Z,16.68
2023-05-20T23:05:02.357Z,16.62
2023-05-20T23:08:09.887Z,16.50
2023-05-20T23:11:15.058Z,16.60
2023-05-20T23:14:23.416Z,16.76
2023-05-20T23:17:31.430Z,16.98
2023-05-20T23:20:39.987Z,16.94
2023-05-20T23:23:49.879Z,16.99
2023-05-20T23:26:58.151Z,16.93
2023-05-20T23:30:03.835Z,16.89
2023-05-20T23:33:09.249Z,16.68
2023-05-20T23:36:16.806Z,16.56
2023-05-20T23:39:23.870Z,16.36
2023-05-20T23:42:30.494Z,16.19
2023-05-20T23:45:38.277Z,16.05
2023-05-20T23:48:45.421Z,15.97
2023-05-20T23:51:53.268Z,16.04
2023-05-20T23:54:59.206Z,16.10
2023-05-20T23:58:05.357Z,16.14
